Time;durP1;ratioP1;P1;durP2;ratioP2;P2;SDS_P1;SDS_P2;PMS_P1;PMS_P2;Temp;Humidity;BMP_temperature;BMP_pressure;BME280_temperature;BME280_humidity;BME280_pressure;Samples;Min_cycle;Max_cycle;Signal;HPM_P1;HPM_P2
2022/11/14 00:01:52;;;;;;;12.97;9.53;;;;;;;7.80;94.05;95657.69;5052066;28;20699;-81
2022/11/14 00:04:18;;;;;;;14.60;9.47;;;;;;;7.83;93.77;95649.69;5052607;28;20224;-83
2022/11/14 00:06:45;;;;;;;10.27;8.80;;;;;;;7.84;93.83;95658.19;5051973;28;20202;-83
2022/11/14 00:09:11;;;;;;;21.27;9.87;;;;;;;7.80;93.52;95656.88;5051750;28;20202;-83
2022/11/14 00:11:39;;;;;;;10.23;9.23;;;;;;;7.78;94.02;95658.78;5051766;28;20198;-81
2022/11/14 00:14:06;;;;;;;10.40;9.30;;;;;;;7.76;94.50;95653.81;5051871;28;20222;-81
2022/11/14 00:16:32;;;;;;;10.20;9.20;;;;;;;7.75;94.39;95656.53;5051954;28;20201;-81
2022/11/14 00:18:59;;;;;;;19.50;10.17;;;;;;;7.67;94.87;95659.91;5044131;28;20707;-83
2022/11/14 00:21:25;;;;;;;9.83;8.90;;;;;;;7.74;94.90;95648.06;5051831;28;20201;-82
2022/11/14 00:23:52;;;;;;;12.07;9.80;;;;;;;7.79;94.55;95640.69;5052160;28;20229;-82
2022/11/14 00:26:18;;;;;;;10.20;9.17;;;;;;;7.75;95.03;95631.72;5052235;28;20193;-82
2022/11/14 00:28:46;;;;;;;18.67;10.40;;;;;;;7.67;95.95;95630.91;5050945;28;20201;-82
2022/11/14 00:31:12;;;;;;;15.33;10.03;;;;;;;7.72;95.59;95626.09;5043639;28;20586;-83
2022/11/14 00:33:39;;;;;;;11.03;9.90;;;;;;;7.61;96.36;95627.22;5049766;28;20218;-83
2022/11/14 00:36:05;;;;;;;11.53;9.13;;;;;;;7.66;95.90;95617.31;5051922;28;20208;-82
2022/11/14 00:38:32;;;;;;;23.57;10.63;;;;;;;7.73;95.03;95612.34;5051325;28;20197;-82
2022/11/14 00:40:58;;;;;;;41.93;11.07;;;;;;;7.64;95.17;95614.09;5050765;28;20198;-82
2022/11/14 00:43:24;;;;;;;53.27;10.90;;;;;;;7.62;95.52;95610.88;5051446;28;20213;-82
2022/11/14 00:45:52;;;;;;;11.10;9.23;;;;;;;7.58;96.27;95600.16;5051241;28;20245;-82
2022/11/14 00:48:19;;;;;;;10.40;9.17;;;;;;;7.67;96.17;95608.66;5051041;28;20200;-83
2022/11/14 00:50:45;;;;;;;35.10;10.80;;;;;;;7.57;95.95;95625.91;5051043;28;20213;-82
2022/11/14 00:53:12;;;;;;;20.40;10.40;;;;;;;7.52;96.20;95641.75;5050713;28;20229;-82
2022/11/14 00:55:38;;;;;;;82.93;12.80;;;;;;;7.34;97.30;95655.63;5051116;28;20197;-81
2022/11/14 00:58:05;;;;;;;63.03;12.70;;;;;;;7.20;98.14;95655.25;5050955;28;20208;-83
2022/11/14 01:00:31;;;;;;;38.13;10.07;;;;;;;7.13;99.45;95651.69;5051322;28;20205;-80
2022/11/14 01:02:59;;;;;;;33.63;10.73;;;;;;;7.17;98.37;95654.75;5050565;28;20217;-81
2022/11/14 01:05:26;;;;;;;49.97;10.80;;;;;;;7.09;99.03;95647.88;5050657;28;20198;-81
2022/11/14 01:07:53;;;;;;;9.87;8.83;;;;;;;7.18;98.17;95648.69;5051030;28;20212;-82
2022/11/14 01:10:19;;;;;;;10.33;8.53;;;;;;;7.24;96.78;95650.63;5050474;28;20297;-83
2022/11/14 01:12:46;;;;;;;14.80;7.83;;;;;;;7.31;95.46;95649.06;5050577;28;20271;-82
2022/11/14 01:15:13;;;;;;;8.97;7.70;;;;;;;7.30;94.78;95652.59;5051560;28;20744;-82
2022/11/14 01:17:39;;;;;;;8.03;7.27;;;;;;;7.32;93.75;95658.34;5051076;28;20212;-83
2022/11/14 01:20:08;;;;;;;11.73;7.53;;;;;;;7.34;93.37;95641.06;5051050;28;20251;-81
2022/11/14 01:22:34;;;;;;;7.57;6.83;;;;;;;7.39;93.45;95648.28;5050962;28;20239;-82
2022/11/14 01:25:01;;;;;;;8.20;7.20;;;;;;;7.41;92.90;95636.94;5049289;28;20206;-83
2022/11/14 01:27:30;;;;;;;8.33;7.33;;;;;;;7.46;92.57;95641.59;5040357;28;20202;-82
2022/11/14 01:29:56;;;;;;;8.13;7.13;;;;;;;7.48;91.90;95648.16;5050059;28;20217;-82
2022/11/14 01:32:23;;;;;;;8.10;7.30;;;;;;;7.47;91.26;95654.25;5050784;28;20221;-82
2022/11/14 01:34:49;;;;;;;26.73;7.83;;;;;;;7.37;91.09;95652.75;5050105;28;20202;-82
2022/11/14 01:37:17;;;;;;;12.70;6.57;;;;;;;7.27;91.46;95670.81;5050210;28;20201;-82
2022/11/14 01:39:43;;;;;;;10.50;7.00;;;;;;;7.26;91.79;95670.03;5049019;28;20197;-82
2022/11/14 01:42:10;;;;;;;13.33;7.03;;;;;;;7.28;91.49;95665.53;5049941;28;20217;-82
2022/11/14 01:44:54;;;;;;;7.40;6.70;;;;;;;7.27;92.52;95658.00;5049928;28;20208;-81
2022/11/14 01:47:23;;;;;;;7.87;6.90;;;;;;;7.33;91.72;95646.34;5044778;28;20189;-81
2022/11/14 01:49:53;;;;;;;27.90;7.63;;;;;;;7.28;92.04;95626.34;5049436;28;20201;-82
2022/11/14 01:52:25;;;;;;;7.57;6.77;;;;;;;7.32;92.13;95647.28;5050426;28;20700;-81
2022/11/14 01:54:54;;;;;;;8.57;6.97;;;;;;;7.31;92.24;95636.28;5049983;28;20193;-83
2022/11/14 01:57:27;;;;;;;8.67;6.60;;;;;;;7.25;92.73;95627.44;5049973;28;20197;-81
2022/11/14 01:59:55;;;;;;;7.50;6.80;;;;;;;7.28;91.37;95626.34;5050226;28;20201;-82
2022/11/14 02:02:24;;;;;;;8.90;6.23;;;;;;;7.31;90.81;95618.34;5049760;28;20308;-82
2022/11/14 02:04:55;;;;;;;6.77;6.17;;;;;;;7.34;90.34;95620.56;5050051;28;20694;-81
2022/11/14 02:07:24;;;;;;;24.67;6.70;;;;;;;7.36;89.85;95616.09;5050304;28;20200;-82
2022/11/14 02:09:51;;;;;;;6.63;6.03;;;;;;;7.29;89.30;95617.69;5049439;28;20201;-81
2022/11/14 02:12:19;;;;;;;7.47;6.20;;;;;;;7.28;89.52;95609.22;5050049;28;20189;-82
2022/11/14 02:14:50;;;;;;;19.13;6.77;;;;;;;7.33;88.99;95603.59;5049274;28;20193;-83
2022/11/14 02:17:18;;;;;;;6.60;6.00;;;;;;;7.34;89.21;95610.31;5050044;28;20196;-82
2022/11/14 02:19:46;;;;;;;6.43;5.83;;;;;;;7.31;89.37;95602.97;5049762;28;20190;-82
2022/11/14 02:22:14;;;;;;;6.40;5.80;;;;;;;7.26;90.02;95597.50;5040348;28;20213;-82
2022/11/14 02:24:43;;;;;;;7.17;6.20;;;;;;;7.25;90.22;95599.28;5043236;28;20193;-81
2022/11/14 02:27:10;;;;;;;7.53;6.83;;;;;;;7.28;90.45;95604.09;5048405;28;20399;-81
2022/11/14 02:29:37;;;;;;;7.73;6.27;;;;;;;7.32;90.41;95602.00;5049373;28;20189;-82
2022/11/14 02:32:04;;;;;;;7.53;6.67;;;;;;;7.31;90.93;95602.19;5049354;28;20213;-82
2022/11/14 02:34:31;;;;;;;10.90;6.83;;;;;;;7.33;90.93;95600.22;5049903;28;20192;-83
2022/11/14 02:36:58;;;;;;;8.17;7.17;;;;;;;7.28;91.66;95595.59;5049201;28;21801;-81
2022/11/14 02:39:26;;;;;;;8.63;6.90;;;;;;;7.33;91.43;95588.22;5049831;28;20198;-82
2022/11/14 02:41:52;;;;;;;7.83;7.13;;;;;;;7.39;91.09;95594.50;5048637;28;20189;-82
2022/11/14 02:44:19;;;;;;;13.57;8.67;;;;;;;7.32;91.15;95609.69;5050339;28;20220;-82
2022/11/14 02:46:45;;;;;;;32.73;8.50;;;;;;;7.02;93.31;95608.47;5049714;28;20204;-82
2022/11/14 02:49:12;;;;;;;28.00;8.60;;;;;;;6.90;95.01;95618.19;5049678;28;20594;-83
2022/11/14 02:51:40;;;;;;;10.83;7.70;;;;;;;6.84;95.45;95617.97;5050115;28;20692;-82
2022/11/14 02:54:06;;;;;;;8.37;7.57;;;;;;;7.00;94.97;95612.94;5048125;28;20280;-80
2022/11/14 02:56:34;;;;;;;10.53;7.43;;;;;;;7.11;94.31;95597.31;5049842;28;20201;-82
2022/11/14 02:59:00;;;;;;;27.03;8.90;;;;;;;7.17;93.79;95594.13;5049448;28;20190;-81
2022/11/14 03:01:27;;;;;;;36.93;9.37;;;;;;;7.08;93.24;95589.94;5049345;28;20197;-83
2022/11/14 03:03:53;;;;;;;13.37;8.07;;;;;;;7.06;93.06;95573.13;5048964;28;20209;-81
2022/11/14 03:06:19;;;;;;;11.60;8.00;;;;;;;6.99;93.75;95567.00;5049938;28;20193;-82
2022/11/14 03:08:46;;;;;;;19.57;8.50;;;;;;;7.03;93.57;95569.09;5048833;28;20284;-82
2022/11/14 03:11:12;;;;;;;8.20;7.33;;;;;;;7.12;93.81;95559.72;5049458;28;20226;-82
2022/11/14 03:13:40;;;;;;;27.03;8.17;;;;;;;7.12;92.88;95557.16;5049425;28;20213;-81
2022/11/14 03:16:08;;;;;;;18.30;7.80;;;;;;;7.15;92.36;95574.75;5047902;28;20247;-82
2022/11/14 03:18:35;;;;;;;12.77;7.73;;;;;;;7.16;92.03;95581.47;5040346;28;20680;-82
2022/11/14 03:21:05;;;;;;;7.90;7.20;;;;;;;7.18;91.84;95582.91;5043471;28;20569;-82
2022/11/14 03:23:32;;;;;;;7.70;7.00;;;;;;;7.20;91.52;95580.19;5049612;28;20224;-84
2022/11/14 03:26:00;;;;;;;8.40;7.60;;;;;;;7.22;91.64;95579.09;5049105;28;20190;-83
2022/11/14 03:28:27;;;;;;;8.17;7.00;;;;;;;7.25;91.61;95570.31;5049265;28;20848;-81
2022/11/14 03:30:55;;;;;;;11.07;7.43;;;;;;;7.11;92.02;95558.91;5049130;28;20222;-81
2022/11/14 03:33:21;;;;;;;7.90;7.20;;;;;;;6.94;92.70;95550.34;5050799;28;20228;-82
2022/11/14 03:35:49;;;;;;;13.13;6.90;;;;;;;7.00;92.97;95553.25;5052498;28;20567;-83
2022/11/14 03:38:15;;;;;;;86.10;11.87;;;;;;;6.98;92.20;95550.84;5053179;28;20190;-82
2022/11/14 03:40:42;;;;;;;8.53;7.23;;;;;;;6.91;93.75;95549.88;5052706;28;20193;-83
2022/11/14 03:43:08;;;;;;;10.97;6.60;;;;;;;6.98;93.52;95557.72;5051303;28;20217;-82
2022/11/14 03:45:36;;;;;;;9.73;6.90;;;;;;;7.01;93.39;95568.47;5052622;28;20201;-82
2022/11/14 03:48:04;;;;;;;7.70;7.00;;;;;;;7.09;93.06;95567.69;5051912;28;20229;-83
2022/11/14 03:50:30;;;;;;;25.80;8.97;;;;;;;7.08;93.07;95591.69;5052797;28;20564;-84
2022/11/14 03:52:56;;;;;;;7.80;7.10;;;;;;;7.08;92.25;95581.47;5052174;28;21018;-83
2022/11/14 03:55:23;;;;;;;8.73;7.03;;;;;;;7.04;91.80;95562.22;5052528;28;20677;-81
2022/11/14 03:57:49;;;;;;;6.67;6.07;;;;;;;7.06;92.08;95566.25;5051919;28;20212;-83
2022/11/14 04:00:17;;;;;;;6.63;6.03;;;;;;;7.14;91.02;95571.38;5052740;28;20209;-82
2022/11/14 04:02:43;;;;;;;6.53;6.00;;;;;;;7.17;90.21;95585.63;5052387;28;20222;-81
2022/11/14 04:05:11;;;;;;;19.13;7.40;;;;;;;7.08;90.33;95591.69;5052505;28;20896;-82
2022/11/14 04:07:37;;;;;;;6.87;6.10;;;;;;;7.06;91.01;95591.03;5052201;28;20193;-83
2022/11/14 04:10:05;;;;;;;7.53;6.83;;;;;;;7.03;91.49;95596.47;5051957;28;20201;-82
2022/11/14 04:12:31;;;;;;;6.97;6.37;;;;;;;7.06;91.68;95585.91;5052177;28;20228;-81
2022/11/14 04:14:58;;;;;;;7.40;6.70;;;;;;;7.13;91.36;95585.13;5046107;28;20516;-82
2022/11/14 04:17:24;;;;;;;7.60;6.90;;;;;;;7.19;90.92;95579.41;5041494;28;20198;-82
2022/11/14 04:19:52;;;;;;;7.20;6.50;;;;;;;7.14;91.31;95573.13;5051241;28;20194;-83
2022/11/14 04:22:20;;;;;;;7.57;6.87;;;;;;;6.95;92.65;95589.53;5051910;28;20208;-82
2022/11/14 04:24:46;;;;;;;10.73;6.90;;;;;;;6.99;91.98;95595.16;5051581;28;20186;-81
2022/11/14 04:27:13;;;;;;;20.77;7.83;;;;;;;6.81;92.81;95608.03;5044146;28;20202;-81
2022/11/14 04:29:39;;;;;;;7.10;6.50;;;;;;;6.89;93.39;95595.31;5051845;28;20219;-82
2022/11/14 04:32:06;;;;;;;7.63;6.93;;;;;;;7.01;92.86;95580.47;5051053;28;20224;-81
2022/11/14 04:34:32;;;;;;;7.53;6.83;;;;;;;7.12;92.22;95582.75;5051810;28;20193;-83
2022/11/14 04:36:59;;;;;;;10.80;7.27;;;;;;;7.20;91.32;95577.63;5051237;28;20220;-82
2022/11/14 04:39:27;;;;;;;7.53;6.77;;;;;;;7.23;91.46;95573.03;5051646;28;20287;-82
2022/11/14 04:41:53;;;;;;;36.63;7.63;;;;;;;7.16;90.78;95573.78;5050683;28;20198;-82
2022/11/14 04:44:20;;;;;;;12.70;6.13;;;;;;;6.97;91.12;95568.91;5050983;28;20210;-85
2022/11/14 04:46:46;;;;;;;7.40;6.70;;;;;;;6.92;92.42;95567.66;5050629;28;20193;-81
2022/11/14 04:49:13;;;;;;;7.17;6.53;;;;;;;6.98;92.91;95552.59;5050767;28;20680;-82
2022/11/14 04:51:39;;;;;;;7.17;6.50;;;;;;;7.06;92.68;95558.56;5051530;28;20205;-83
2022/11/14 04:54:06;;;;;;;7.60;6.90;;;;;;;7.13;92.14;95559.53;5050836;28;20232;-82
2022/11/14 04:56:33;;;;;;;25.60;8.20;;;;;;;6.93;92.64;95568.41;5051341;28;20201;-82
2022/11/14 04:59:00;;;;;;;7.27;6.57;;;;;;;6.88;93.42;95566.34;5049949;28;20564;-82
2022/11/14 05:01:26;;;;;;;7.50;6.80;;;;;;;6.82;94.15;95571.25;5050484;28;20551;-82
2022/11/14 05:03:53;;;;;;;7.00;6.30;;;;;;;6.93;93.55;95568.41;5051601;28;20608;-83
2022/11/14 05:06:19;;;;;;;19.63;6.97;;;;;;;6.90;92.86;95564.44;5051231;28;20208;-81
2022/11/14 05:08:47;;;;;;;15.73;7.37;;;;;;;6.72;94.03;95575.72;5051169;28;20281;-83
2022/11/14 05:11:14;;;;;;;7.50;6.70;;;;;;;6.69;94.34;95566.59;5042064;28;20232;-81
2022/11/14 05:13:42;;;;;;;7.53;6.83;;;;;;;6.74;94.36;95569.47;5040997;28;20217;-82
2022/11/14 05:16:08;;;;;;;10.07;6.27;;;;;;;6.78;93.60;95568.19;5050434;28;20205;-83
2022/11/14 05:18:35;;;;;;;9.80;6.83;;;;;;;6.77;93.58;95569.16;5047595;28;20199;-82
2022/11/14 05:21:02;;;;;;;7.67;6.93;;;;;;;6.77;93.39;95558.13;5048911;28;20611;-81
2022/11/14 05:23:29;;;;;;;7.77;6.97;;;;;;;6.75;93.65;95568.50;5031547;28;20229;-82
2022/11/14 05:25:59;;;;;;;7.33;6.63;;;;;;;6.84;92.97;95566.81;5042954;28;20212;-81
2022/11/14 05:28:26;;;;;;;7.20;6.50;;;;;;;6.84;93.29;95565.03;5051088;28;20202;-81
2022/11/14 05:31:00;;;;;;;10.30;9.00;;;;;;;6.75;100.00;95563.38;5049414;28;20196;-82
2022/11/14 05:33:27;;;;;;;14.57;9.03;;;;;;;6.75;100.00;95572.81;5051052;28;20224;-83
2022/11/14 05:35:53;;;;;;;11.37;10.17;;;;;;;6.86;97.96;95567.44;5049946;28;20193;-82
2022/11/14 05:38:20;;;;;;;14.57;13.00;;;;;;;6.98;95.34;95570.53;5049285;28;20220;-82
2022/11/14 05:40:46;;;;;;;18.17;15.70;;;;;;;7.07;93.82;95570.41;5049811;28;20558;-80
2022/11/14 05:43:12;;;;;;;9.50;8.53;;;;;;;7.10;92.50;95575.22;5037173;28;20218;-80
2022/11/14 05:45:39;;;;;;;7.40;6.70;;;;;;;7.15;91.09;95579.84;5031045;28;20194;-81
2022/11/14 05:48:07;;;;;;;7.23;6.57;;;;;;;7.11;90.92;95574.28;5038759;28;20251;-82
2022/11/14 05:50:34;;;;;;;7.57;6.87;;;;;;;7.09;90.31;95571.06;5040526;28;20206;-82
2022/11/14 05:53:00;;;;;;;48.37;36.77;;;;;;;7.10;90.43;95580.34;5045896;28;20592;-82
2022/11/14 05:55:26;;;;;;;8.20;7.40;;;;;;;7.02;90.44;95585.44;5035431;28;20726;-80
2022/11/14 05:57:53;;;;;;;17.30;7.77;;;;;;;6.81;90.71;95601.16;5030501;28;20734;-81
2022/11/14 06:00:19;;;;;;;8.20;7.40;;;;;;;6.79;91.37;95597.97;5030903;28;20576;-83
2022/11/14 06:02:46;;;;;;;7.40;6.67;;;;;;;6.79;91.51;95599.72;5030984;28;20217;-81
2022/11/14 06:05:14;;;;;;;10.37;7.03;;;;;;;6.58;91.85;95602.63;5030617;28;20724;-82
2022/11/14 06:07:40;;;;;;;7.63;6.87;;;;;;;6.62;91.99;95603.94;5036705;28;20252;-81
2022/11/14 06:10:07;;;;;;;10.43;6.83;;;;;;;6.59;92.26;95607.59;5032523;28;20564;-80
2022/11/14 06:12:34;;;;;;;7.63;6.83;;;;;;;6.67;92.58;95614.53;5030671;28;20697;-82
2022/11/14 06:15:00;;;;;;;7.97;6.17;;;;;;;6.69;91.98;95614.38;5030284;28;20206;-83
2022/11/14 06:17:26;;;;;;;12.97;7.10;;;;;;;6.68;91.34;95623.00;5030269;28;20763;-82
2022/11/14 06:19:53;;;;;;;25.20;7.13;;;;;;;6.59;91.08;95622.94;5030083;28;20194;-81
2022/11/14 06:22:21;;;;;;;9.43;5.97;;;;;;;6.50;91.46;95620.50;5043344;28;20189;-83
2022/11/14 06:24:47;;;;;;;38.30;9.33;;;;;;;6.38;92.89;95624.25;5050265;28;20216;-80
2022/11/14 06:27:14;;;;;;;29.60;7.27;;;;;;;6.30;93.09;95627.56;5049942;28;20704;-81
2022/11/14 06:29:40;;;;;;;15.60;6.90;;;;;;;6.31;93.46;95631.72;5033462;28;20198;-82
2022/11/14 06:32:08;;;;;;;11.87;7.23;;;;;;;6.29;93.90;95630.28;5030322;28;20226;-82
2022/11/14 06:34:35;;;;;;;7.30;6.50;;;;;;;6.31;93.72;95628.38;5030801;28;20209;-82
2022/11/14 06:37:01;;;;;;;7.07;6.37;;;;;;;6.35;93.75;95622.00;5030216;28;20664;-81
2022/11/14 06:39:29;;;;;;;7.13;6.43;;;;;;;6.43;92.89;95630.53;5030330;28;20217;-82
2022/11/14 06:41:55;;;;;;;6.80;6.20;;;;;;;6.44;92.65;95628.78;5029941;28;20561;-80
2022/11/14 06:44:22;;;;;;;6.60;5.90;;;;;;;6.48;91.23;95630.88;5034314;28;20699;-82
2022/11/14 06:46:49;;;;;;;6.27;5.67;;;;;;;6.46;91.25;95625.13;5049963;28;20778;-82
2022/11/14 06:49:15;;;;;;;5.83;5.27;;;;;;;6.71;90.52;95622.72;5049764;28;20204;-82
2022/11/14 06:51:42;;;;;;;5.43;4.93;;;;;;;7.03;89.30;95620.31;5035285;28;20226;-81
2022/11/14 06:54:11;;;;;;;5.17;4.67;;;;;;;7.37;85.89;95624.59;5029724;28;20234;-81
2022/11/14 06:56:39;;;;;;;4.97;4.47;;;;;;;7.70;84.68;95628.81;5029924;28;20509;-82
2022/11/14 06:59:05;;;;;;;5.63;4.80;;;;;;;8.21;83.51;95621.84;5030223;28;20217;-82
2022/11/14 07:01:32;;;;;;;5.80;4.60;;;;;;;8.24;81.25;95617.19;5029886;28;20198;-81
2022/11/14 07:03:59;;;;;;;5.60;5.10;;;;;;;8.47;78.53;95616.53;5037820;28;20225;-82
2022/11/14 07:06:27;;;;;;;5.10;4.57;;;;;;;8.76;82.14;95610.88;5038073;28;20202;-83
2022/11/14 07:08:54;;;;;;;6.60;5.03;;;;;;;8.88;76.96;95622.38;5031751;28;20289;-83
2022/11/14 07:11:24;;;;;;;5.23;4.73;;;;;;;8.83;76.36;95614.41;5034103;28;20205;-81
2022/11/14 07:13:53;;;;;;;5.37;4.90;;;;;;;8.41;77.39;95614.63;5033664;28;20296;-80
2022/11/14 07:16:21;;;;;;;6.60;4.90;;;;;;;8.29;79.12;95614.13;5033651;28;20210;-81
2022/11/14 07:18:47;;;;;;;5.27;4.77;;;;;;;8.16;79.12;95606.91;5033449;28;20198;-83
2022/11/14 07:21:14;;;;;;;5.10;4.60;;;;;;;8.27;79.49;95605.81;5037165;28;20200;-81
2022/11/14 07:23:41;;;;;;;4.77;4.37;;;;;;;8.10;78.72;95612.69;5036117;28;20226;-83
2022/11/14 07:26:10;;;;;;;5.40;4.90;;;;;;;8.23;80.02;95615.59;5033437;28;20245;-83
2022/11/14 07:28:37;;;;;;;6.47;4.93;;;;;;;8.17;78.79;95607.72;5033866;28;20862;-82
2022/11/14 07:31:07;;;;;;;4.90;4.50;;;;;;;8.12;79.85;95610.75;5033513;28;20673;-82
2022/11/14 07:33:34;;;;;;;5.73;4.33;;;;;;;8.11;80.95;95616.84;5034020;28;20226;-83
2022/11/14 07:36:01;;;;;;;7.03;6.37;;;;;;;8.19;80.72;95601.47;5033563;28;20202;-82
2022/11/14 07:38:27;;;;;;;8.00;7.20;;;;;;;8.27;80.91;95609.16;5033233;28;20289;-82
2022/11/14 07:40:54;;;;;;;7.20;5.60;;;;;;;8.22;80.49;95608.84;5039224;28;20200;-83
2022/11/14 07:43:21;;;;;;;8.43;6.27;;;;;;;7.99;82.47;95615.56;5053054;28;20225;-81
2022/11/14 07:45:48;;;;;;;7.40;5.60;;;;;;;7.87;84.34;95612.53;5054111;28;20197;-82
2022/11/14 07:48:16;;;;;;;5.90;5.37;;;;;;;7.97;84.51;95608.03;5047608;28;20205;-82
2022/11/14 07:50:43;;;;;;;6.13;5.53;;;;;;;7.85;85.25;95614.44;5053923;28;20256;-83
2022/11/14 07:53:10;;;;;;;6.33;5.60;;;;;;;7.93;85.18;95614.44;5053259;28;20222;-84
2022/11/14 07:55:36;;;;;;;7.50;5.33;;;;;;;8.15;84.53;95605.31;5051708;28;20218;-83
2022/11/14 07:58:03;;;;;;;6.17;5.67;;;;;;;8.45;83.41;95596.19;5052865;28;20832;-82
2022/11/14 08:00:30;;;;;;;5.40;5.00;;;;;;;8.49;81.32;95587.19;5044135;28;20213;-83
2022/11/14 08:02:56;;;;;;;7.60;5.47;;;;;;;8.75;81.37;95594.69;5039545;28;20214;-82
2022/11/14 08:05:24;;;;;;;5.93;5.37;;;;;;;9.13;80.41;95589.72;5053297;28;20201;-83
2022/11/14 08:07:51;;;;;;;6.80;5.20;;;;;;;9.25;77.33;95594.31;5053062;28;20288;-84
2022/11/14 08:10:18;;;;;;;5.50;4.93;;;;;;;9.50;76.60;95582.16;5053653;28;20286;-84
2022/11/14 08:12:44;;;;;;;7.33;5.13;;;;;;;9.68;75.53;95576.72;5053345;28;20233;-82
2022/11/14 08:15:12;;;;;;;7.50;5.23;;;;;;;9.55;73.81;95579.06;5052832;28;20293;-83
2022/11/14 08:17:39;;;;;;;7.57;4.90;;;;;;;9.62;74.70;95562.78;5052540;28;20212;-82
2022/11/14 08:20:08;;;;;;;5.03;4.40;;;;;;;9.74;71.78;95559.84;5052540;28;20207;-82
2022/11/14 08:22:35;;;;;;;5.20;4.73;;;;;;;9.85;71.36;95569.69;5052584;28;20217;-82
2022/11/14 08:25:02;;;;;;;21.60;16.80;;;;;;;9.83;72.85;95582.72;5047605;28;20225;-82
2022/11/14 08:27:28;;;;;;;6.50;5.73;;;;;;;9.88;71.67;95580.44;5032594;28;20210;-82
2022/11/14 08:29:55;;;;;;;6.20;5.13;;;;;;;10.03;70.37;95573.56;5033211;28;20210;-82
2022/11/14 08:32:21;;;;;;;5.30;4.80;;;;;;;10.22;69.84;95569.75;5032892;28;20218;-81
2022/11/14 08:34:48;;;;;;;6.70;4.87;;;;;;;10.34;70.55;95576.09;5032599;28;20223;-82
2022/11/14 08:37:14;;;;;;;6.00;4.73;;;;;;;10.31;70.22;95562.78;5032697;28;20209;-82
2022/11/14 08:39:42;;;;;;;5.53;4.50;;;;;;;10.29;70.84;95562.16;5032653;28;20198;-83
2022/11/14 08:42:08;;;;;;;6.50;5.77;;;;;;;10.43;72.05;95563.94;5033282;28;20207;-82
2022/11/14 08:44:35;;;;;;;8.60;6.53;;;;;;;10.59;72.81;95560.38;5033325;28;20222;-82
2022/11/14 08:47:02;;;;;;;7.87;7.07;;;;;;;10.72;73.17;95563.16;5032587;28;20198;-81
2022/11/14 08:49:29;;;;;;;9.60;7.20;;;;;;;10.87;73.22;95561.38;5035293;28;20233;-82
2022/11/14 08:51:55;;;;;;;8.37;7.03;;;;;;;11.02;72.77;95561.38;5034766;28;20210;-83
2022/11/14 08:54:22;;;;;;;7.73;6.97;;;;;;;11.12;72.43;95573.97;5031435;28;20230;-82
2022/11/14 08:56:49;;;;;;;9.80;7.60;;;;;;;11.16;72.74;95580.38;5042318;28;20206;-83
2022/11/14 08:59:16;;;;;;;13.40;8.40;;;;;;;11.28;72.79;95592.63;5038670;28;20208;-82
2022/11/14 09:01:43;;;;;;;11.40;7.77;;;;;;;11.35;72.30;95590.91;5040967;28;20229;-82
2022/11/14 09:04:09;;;;;;;8.93;8.10;;;;;;;11.40;71.72;95586.00;5051823;28;20228;-81
2022/11/14 09:06:36;;;;;;;9.73;8.53;;;;;;;11.41;71.85;95572.13;5052297;28;20198;-83
2022/11/14 09:09:02;;;;;;;8.83;7.93;;;;;;;11.40;70.53;95569.72;5051738;28;20198;-83
2022/11/14 09:11:29;;;;;;;8.57;7.67;;;;;;;11.40;70.35;95560.22;5057923;28;20739;-83
2022/11/14 09:13:57;;;;;;;9.70;8.20;;;;;;;11.50;70.94;95559.94;5060137;28;20225;-81
2022/11/14 09:16:23;;;;;;;10.90;8.17;;;;;;;11.60;70.68;95559.63;5052766;28;20197;-83
2022/11/14 09:18:50;;;;;;;8.20;7.37;;;;;;;11.66;70.37;95559.72;5051963;28;20205;-81
2022/11/14 09:21:16;;;;;;;13.13;7.97;;;;;;;11.64;69.87;95568.59;5052359;28;20216;-82
2022/11/14 09:23:43;;;;;;;9.37;7.83;;;;;;;11.55;70.29;95565.31;5051548;28;20220;-82
2022/11/14 09:26:10;;;;;;;14.23;8.33;;;;;;;11.61;70.57;95567.19;5051821;28;20212;-81
2022/11/14 09:28:37;;;;;;;20.40;17.80;;;;;;;11.67;69.72;95563.88;5052909;28;20205;-83
2022/11/14 09:31:06;;;;;;;9.80;8.80;;;;;;;11.73;70.24;95568.31;5051270;28;20309;-82
2022/11/14 09:33:33;;;;;;;9.20;8.40;;;;;;;11.94;70.13;95569.31;5051828;28;20235;-82
2022/11/14 09:36:01;;;;;;;8.93;8.00;;;;;;;11.97;69.20;95566.38;5051914;28;20689;-81
2022/11/14 09:38:28;;;;;;;9.57;8.67;;;;;;;12.01;70.29;95560.66;5051127;28;20819;-83
2022/11/14 09:41:09;;;;;;;10.70;9.07;;;;;;;11.75;70.90;95562.94;5050908;28;20579;-83
2022/11/14 09:43:59;;;;;;;10.07;9.07;;;;;;;11.75;72.05;95571.50;5051374;28;20217;-83
2022/11/14 09:46:32;;;;;;;9.67;8.67;;;;;;;11.88;72.50;95582.97;5052065;28;20596;-81
2022/11/14 09:48:59;;;;;;;10.17;9.17;;;;;;;12.06;71.96;95578.97;5050968;28;20995;-83
2022/11/14 09:51:31;;;;;;;9.37;8.57;;;;;;;12.08;71.03;95583.94;5048028;28;20198;-82
2022/11/14 09:54:05;;;;;;;10.50;9.50;;;;;;;12.26;70.98;95583.50;5038720;28;20218;-83
2022/11/14 09:56:31;;;;;;;10.70;9.70;;;;;;;12.38;70.41;95584.56;5031362;28;20191;-83
2022/11/14 09:58:58;;;;;;;11.60;9.83;;;;;;;12.09;70.29;95588.13;5030791;28;20202;-82
2022/11/14 10:01:37;;;;;;;10.80;9.50;;;;;;;11.96;71.08;95586.22;5031067;28;20569;-81
2022/11/14 10:04:13;;;;;;;10.87;9.83;;;;;;;11.96;71.99;95591.38;5031078;28;20701;-83
2022/11/14 10:06:47;;;;;;;11.67;9.67;;;;;;;12.06;71.00;95596.22;5031015;28;20216;-83
2022/11/14 10:09:33;;;;;;;10.63;9.60;;;;;;;12.22;71.11;95584.84;5030857;28;20560;-82
2022/11/14 10:12:07;;;;;;;11.23;9.70;;;;;;;12.42;70.44;95580.63;5031658;28;20198;-83
2022/11/14 10:15:01;;;;;;;12.87;10.03;;;;;;;12.34;69.71;95597.06;5041927;28;20224;-82
2022/11/14 10:17:48;;;;;;;10.00;9.10;;;;;;;12.41;70.27;95595.31;5056478;28;20192;-83
2022/11/14 10:20:23;;;;;;;12.67;10.67;;;;;;;12.57;70.50;95586.50;5052452;28;20186;-83
2022/11/14 10:23:04;;;;;;;30.37;25.37;;;;;;;12.64;69.35;95578.81;5051913;28;20225;-82
2022/11/14 10:25:40;;;;;;;12.17;11.00;;;;;;;12.68;69.00;95587.78;5051976;28;20719;-82
2022/11/14 10:28:28;;;;;;;10.90;9.80;;;;;;;12.70;68.74;95591.75;5051212;28;20652;-81
2022/11/14 10:31:05;;;;;;;11.80;9.83;;;;;;;12.66;69.81;95587.97;5051647;28;20671;-83
2022/11/14 10:33:43;;;;;;;10.83;9.40;;;;;;;12.72;69.43;95589.78;5052035;28;20228;-82
2022/11/14 10:36:21;;;;;;;10.80;9.67;;;;;;;12.80;69.14;95588.84;5051926;28;20216;-83
2022/11/14 10:38:54;;;;;;;11.07;9.03;;;;;;;12.71;68.08;95587.38;5031738;28;20186;-82
2022/11/14 10:41:24;;;;;;;10.10;9.10;;;;;;;12.83;68.16;95585.06;5031263;28;20205;-82
2022/11/14 10:43:52;;;;;;;9.70;8.90;;;;;;;12.70;68.37;95590.97;5033063;28;20218;-82
2022/11/14 10:46:24;;;;;;;10.27;8.73;;;;;;;12.82;68.77;95584.28;5036480;28;20209;-83
2022/11/14 10:48:52;;;;;;;9.80;8.83;;;;;;;12.80;67.59;95587.03;5043551;28;20858;-83
2022/11/14 10:51:24;;;;;;;10.07;8.93;;;;;;;12.79;67.44;95595.78;5043872;28;20202;-83
2022/11/14 10:53:55;;;;;;;9.77;8.70;;;;;;;12.90;67.75;95586.69;5035548;28;20226;-83
2022/11/14 10:56:22;;;;;;;9.93;8.93;;;;;;;12.74;67.51;95597.34;5035849;28;20192;-82
2022/11/14 10:58:48;;;;;;;9.70;8.80;;;;;;;12.80;67.59;95601.75;5035365;28;20205;-82
2022/11/14 11:01:37;;;;;;;9.93;8.93;;;;;;;12.89;66.58;95605.00;5035695;28;20228;-83
2022/11/14 11:04:25;;;;;;;10.17;9.27;;;;;;;13.02;66.22;95612.81;5035316;28;20224;-83
2022/11/14 11:06:54;;;;;;;10.30;9.23;;;;;;;13.04;66.79;95609.06;5035424;28;20191;-82
2022/11/14 11:12:07;;;;;;;11.13;10.13;;;;;;;13.03;66.67;95609.25;5054280;28;20261;-82
2022/11/14 11:14:34;;;;;;;10.13;9.23;;;;;;;12.80;66.89;95607.72;5054056;28;20224;-82
2022/11/14 11:17:19;;;;;;;10.17;9.17;;;;;;;12.79;66.99;95616.44;5054547;28;20209;-84
2022/11/14 11:19:48;;;;;;;10.33;9.37;;;;;;;12.93;66.79;95619.91;5055215;28;20205;-83
2022/11/14 11:22:36;;;;;;;15.37;13.47;;;;;;;13.04;65.18;95641.84;5053627;28;20193;-83
2022/11/14 11:25:03;;;;;;;8.70;7.90;;;;;;;12.76;65.00;95639.28;5055292;28;20185;-84
2022/11/14 11:27:30;;;;;;;7.43;6.73;;;;;;;12.59;65.43;95649.09;5053760;28;20205;-81
2022/11/14 11:30:17;;;;;;;7.47;6.77;;;;;;;12.66;65.38;95655.13;5053911;28;20202;-82
2022/11/14 11:32:43;;;;;;;7.40;6.77;;;;;;;12.69;65.68;95656.53;5055543;28;20691;-85
2022/11/14 11:35:13;;;;;;;6.87;6.27;;;;;;;12.78;65.57;95656.19;5055854;28;20606;-85
2022/11/14 11:37:43;;;;;;;7.70;7.10;;;;;;;12.76;64.52;95659.94;5043950;28;20198;-84
2022/11/14 11:40:16;;;;;;;6.80;6.23;;;;;;;12.84;64.52;95656.44;5033597;28;20202;-84
2022/11/14 11:42:48;;;;;;;7.27;6.27;;;;;;;12.79;64.72;95657.78;5035304;28;20222;-84